UAL1009 KSBA-KORD
Flight info
| Callsign | UAL1009 |
|---|---|
| Flight time | N/A |
| Altitude | 35000 |
| Route | MISHN5 NNAVY LAS J146 BETHL/N0460F370 J146 DVC HLC IRK BENKY6 |
| Aircraft | B738/M-SDE2E3FGHIRWXY/LB1 |
Departure
| Time | 2026-05-08 15:56 |
|---|---|
| Airport | Santa Barbara Municipal Airport (KSBA) |
Arrival
| Time | N/A |
|---|---|
| Airport | Chicago O'Hare International Airport (KORD) |
| Time | Latitude | Longitude | Altitude | Speed | Heading |
|---|---|---|---|---|---|
| 2026-05-08 15:15 | 34.42426 | -119.83699 | 17 ft | 0 kts | 105° |
| 2026-05-08 15:42 | 34.42430 | -119.83723 | 17 ft | 4 kts | 84° |
| 2026-05-08 15:42 | 34.42421 | -119.83747 | 17 ft | 4 kts | 25° |
| 2026-05-08 15:42 | 34.42397 | -119.83751 | 19 ft | 3 kts | 347° |
| 2026-05-08 15:42 | 34.42390 | -119.83749 | 19 ft | 0 kts | 346° |
| 2026-05-08 15:49 | 34.42391 | -119.83749 | 19 ft | 1 kts | 346° |
| 2026-05-08 15:50 | 34.42410 | -119.83755 | 19 ft | 5 kts | 345° |
| 2026-05-08 15:50 | 34.42453 | -119.83769 | 18 ft | 8 kts | 346° |
| 2026-05-08 15:50 | 34.42523 | -119.83790 | 18 ft | 12 kts | 346° |
| 2026-05-08 15:50 | 34.42615 | -119.83818 | 17 ft | 15 kts | 346° |
| 2026-05-08 15:51 | 34.42622 | -119.83821 | 18 ft | 0 kts | 345° |
| 2026-05-08 15:51 | 34.42624 | -119.83821 | 18 ft | 0 kts | 345° |
| 2026-05-08 15:52 | 34.42651 | -119.83821 | 18 ft | 9 kts | 18° |
| 2026-05-08 15:52 | 34.42673 | -119.83714 | 17 ft | 17 kts | 89° |
| 2026-05-08 15:52 | 34.42677 | -119.83572 | 17 ft | 17 kts | 87° |
| 2026-05-08 15:52 | 34.42687 | -119.83476 | 17 ft | 7 kts | 54° |
| 2026-05-08 15:53 | 34.42704 | -119.83464 | 17 ft | 0 kts | 15° |
| 2026-05-08 15:54 | 34.42727 | -119.83462 | 17 ft | 7 kts | 359° |
| 2026-05-08 15:55 | 34.42786 | -119.83498 | 17 ft | 11 kts | 296° |
| 2026-05-08 15:55 | 34.42784 | -119.83845 | 19 ft | 79 kts | 268° |
| 2026-05-08 15:55 | 34.42764 | -119.84829 | 18 ft | 152 kts | 268° |
| 2026-05-08 15:56 | 34.42730 | -119.86253 | 549 ft | 170 kts | 267° |
| 2026-05-08 15:56 | 34.42675 | -119.87678 | 1481 ft | 176 kts | 266° |
| 2026-05-08 15:56 | 34.42606 | -119.89250 | 1963 ft | 199 kts | 267° |
| 2026-05-08 15:56 | 34.42338 | -119.91009 | 2175 ft | 227 kts | 245° |
| 2026-05-08 15:57 | 34.41351 | -119.92575 | 2575 ft | 244 kts | 219° |
| 2026-05-08 15:57 | 34.39797 | -119.93622 | 2877 ft | 267 kts | 206° |
| 2026-05-08 15:57 | 34.38074 | -119.94580 | 3555 ft | 275 kts | 206° |
| 2026-05-08 15:57 | 34.36321 | -119.95551 | 4377 ft | 279 kts | 204° |
| 2026-05-08 15:58 | 34.34401 | -119.95967 | 5117 ft | 288 kts | 173° |
| 2026-05-08 15:58 | 34.32474 | -119.95331 | 6004 ft | 287 kts | 160° |
| 2026-05-08 15:58 | 34.30608 | -119.94443 | 6642 ft | 290 kts | 158° |
| 2026-05-08 15:58 | 34.28732 | -119.93512 | 6954 ft | 292 kts | 158° |
| 2026-05-08 15:59 | 34.26838 | -119.92580 | 6995 ft | 295 kts | 159° |
| 2026-05-08 15:59 | 34.24942 | -119.91665 | 6993 ft | 293 kts | 159° |
| 2026-05-08 15:59 | 34.23046 | -119.90762 | 7000 ft | 292 kts | 159° |
| 2026-05-08 15:59 | 34.21153 | -119.89866 | 7011 ft | 293 kts | 159° |
| 2026-05-08 16:00 | 34.19275 | -119.88911 | 7001 ft | 294 kts | 150° |
| 2026-05-08 16:00 | 34.17793 | -119.87244 | 7009 ft | 293 kts | 122° |
| 2026-05-08 16:00 | 34.17044 | -119.84973 | 7267 ft | 294 kts | 99° |
| 2026-05-08 16:00 | 34.16712 | -119.82535 | 8045 ft | 294 kts | 97° |
| 2026-05-08 16:01 | 34.16411 | -119.80096 | 8919 ft | 293 kts | 97° |
| 2026-05-08 16:01 | 34.16113 | -119.77652 | 9725 ft | 296 kts | 97° |
| 2026-05-08 16:01 | 34.15806 | -119.75171 | 10394 ft | 303 kts | 98° |
| 2026-05-08 16:01 | 34.15478 | -119.72564 | 10588 ft | 327 kts | 98° |
| 2026-05-08 16:02 | 34.15119 | -119.69757 | 10760 ft | 349 kts | 98° |
| 2026-05-08 16:02 | 34.14736 | -119.66782 | 10918 ft | 369 kts | 98° |
| 2026-05-08 16:02 | 34.14331 | -119.63665 | 11239 ft | 381 kts | 98° |
| 2026-05-08 16:02 | 34.13916 | -119.60480 | 11793 ft | 385 kts | 98° |
| 2026-05-08 16:03 | 34.13504 | -119.57278 | 12437 ft | 387 kts | 97° |
| 2026-05-08 16:03 | 34.13557 | -119.54037 | 13012 ft | 390 kts | 78° |
| 2026-05-08 16:03 | 34.14141 | -119.50832 | 13638 ft | 392 kts | 77° |
| 2026-05-08 16:03 | 34.14733 | -119.47612 | 14167 ft | 396 kts | 77° |
| 2026-05-08 16:04 | 34.15320 | -119.44338 | 14601 ft | 401 kts | 78° |
| 2026-05-08 16:04 | 34.15898 | -119.41046 | 15150 ft | 402 kts | 78° |
| 2026-05-08 16:04 | 34.16470 | -119.37729 | 15722 ft | 404 kts | 78° |
| 2026-05-08 16:04 | 34.17040 | -119.34390 | 16243 ft | 407 kts | 78° |
| 2026-05-08 16:05 | 34.17604 | -119.31070 | 16742 ft | 410 kts | 78° |
| 2026-05-08 16:05 | 34.18177 | -119.27687 | 17241 ft | 413 kts | 78° |
| 2026-05-08 16:05 | 34.18754 | -119.24275 | 17747 ft | 416 kts | 78° |
| 2026-05-08 16:05 | 34.19334 | -119.20839 | 18237 ft | 419 kts | 78° |
| 2026-05-08 16:06 | 34.19917 | -119.17382 | 18677 ft | 421 kts | 78° |
| 2026-05-08 16:06 | 34.20503 | -119.13904 | 19101 ft | 424 kts | 78° |
| 2026-05-08 16:06 | 34.21092 | -119.10398 | 19513 ft | 427 kts | 78° |
| 2026-05-08 16:06 | 34.21708 | -119.06887 | 19932 ft | 429 kts | 77° |
| 2026-05-08 16:07 | 34.22397 | -119.03366 | 20349 ft | 431 kts | 76° |
| 2026-05-08 16:07 | 34.23119 | -118.99839 | 20755 ft | 434 kts | 76° |
| 2026-05-08 16:07 | 34.23853 | -118.96284 | 21155 ft | 437 kts | 75° |
| 2026-05-08 16:07 | 34.24586 | -118.92713 | 21555 ft | 439 kts | 76° |
| 2026-05-08 16:08 | 34.25317 | -118.89113 | 21949 ft | 442 kts | 76° |
| 2026-05-08 16:08 | 34.26041 | -118.85514 | 22326 ft | 444 kts | 76° |
| 2026-05-08 16:08 | 34.26771 | -118.81863 | 22704 ft | 447 kts | 76° |
| 2026-05-08 16:08 | 34.27500 | -118.78198 | 23066 ft | 450 kts | 76° |
| 2026-05-08 16:09 | 34.28230 | -118.74513 | 23428 ft | 452 kts | 76° |
| 2026-05-08 16:09 | 34.28726 | -118.72008 | 23676 ft | 453 kts | 76° |
| 2026-05-08 16:09 | 34.29698 | -118.67083 | 24065 ft | 456 kts | 76° |
| 2026-05-08 16:09 | 34.30436 | -118.63340 | 24375 ft | 458 kts | 76° |
| 2026-05-08 16:10 | 34.30925 | -118.60862 | 24582 ft | 459 kts | 76° |
| 2026-05-08 16:10 | 34.31665 | -118.57099 | 24883 ft | 461 kts | 76° |
| 2026-05-08 16:10 | 34.32408 | -118.53315 | 25172 ft | 463 kts | 76° |
| 2026-05-08 16:10 | 34.33161 | -118.49471 | 25501 ft | 465 kts | 76° |
| 2026-05-08 16:11 | 34.33896 | -118.45715 | 25796 ft | 466 kts | 76° |
| 2026-05-08 16:11 | 34.34643 | -118.41893 | 26069 ft | 468 kts | 76° |
| 2026-05-08 16:11 | 34.35402 | -118.38001 | 26334 ft | 470 kts | 76° |
| 2026-05-08 16:11 | 34.36154 | -118.34137 | 26586 ft | 472 kts | 76° |
| 2026-05-08 16:12 | 34.36905 | -118.30271 | 26843 ft | 474 kts | 76° |
| 2026-05-08 16:12 | 34.37649 | -118.26433 | 27096 ft | 475 kts | 76° |
| 2026-05-08 16:12 | 34.38404 | -118.22536 | 27342 ft | 477 kts | 76° |
| 2026-05-08 16:12 | 34.39162 | -118.18610 | 27562 ft | 480 kts | 76° |
| 2026-05-08 16:13 | 34.39922 | -118.14670 | 27801 ft | 481 kts | 76° |
| 2026-05-08 16:13 | 34.40683 | -118.10722 | 28086 ft | 482 kts | 76° |
| 2026-05-08 16:13 | 34.41440 | -118.06782 | 28460 ft | 481 kts | 76° |
| 2026-05-08 16:13 | 34.42210 | -118.02843 | 28836 ft | 479 kts | 73° |
| 2026-05-08 16:14 | 34.43355 | -117.99072 | 29178 ft | 477 kts | 65° |
| 2026-05-08 16:14 | 34.44766 | -117.95437 | 29564 ft | 475 kts | 63° |
| 2026-05-08 16:14 | 34.46232 | -117.91854 | 29910 ft | 475 kts | 62° |
| 2026-05-08 16:14 | 34.47708 | -117.88271 | 30236 ft | 475 kts | 62° |
| 2026-05-08 16:15 | 34.49169 | -117.84679 | 30565 ft | 473 kts | 63° |
| 2026-05-08 16:15 | 34.50599 | -117.81099 | 30923 ft | 471 kts | 63° |
| 2026-05-08 16:15 | 34.52011 | -117.77510 | 31233 ft | 471 kts | 63° |
| 2026-05-08 16:15 | 34.53404 | -117.73932 | 31499 ft | 471 kts | 63° |
| 2026-05-08 16:16 | 34.54796 | -117.70335 | 31837 ft | 469 kts | 63° |
| 2026-05-08 16:16 | 34.56174 | -117.66762 | 32204 ft | 467 kts | 64° |
| 2026-05-08 16:16 | 34.57548 | -117.63198 | 32526 ft | 466 kts | 64° |
| 2026-05-08 16:16 | 34.58919 | -117.59639 | 32803 ft | 466 kts | 64° |
| 2026-05-08 16:17 | 34.60290 | -117.56079 | 33123 ft | 465 kts | 64° |
| 2026-05-08 16:17 | 34.61656 | -117.52529 | 33450 ft | 463 kts | 64° |
| 2026-05-08 16:17 | 34.63019 | -117.48986 | 33740 ft | 463 kts | 64° |
| 2026-05-08 16:17 | 34.64379 | -117.45447 | 33989 ft | 462 kts | 64° |
| 2026-05-08 16:18 | 34.65735 | -117.41913 | 34270 ft | 461 kts | 64° |
| 2026-05-08 16:18 | 34.67089 | -117.38382 | 34490 ft | 461 kts | 64° |
| 2026-05-08 16:18 | 34.68442 | -117.34850 | 34667 ft | 462 kts | 64° |
| 2026-05-08 16:18 | 34.69799 | -117.31303 | 34851 ft | 462 kts | 64° |
| 2026-05-08 16:19 | 34.71148 | -117.27773 | 35077 ft | 461 kts | 64° |
| 2026-05-08 16:19 | 34.72501 | -117.24229 | 35061 ft | 464 kts | 64° |
| 2026-05-08 16:19 | 34.75209 | -117.17122 | 35038 ft | 461 kts | 64° |
| 2026-05-08 16:20 | 34.77889 | -117.10072 | 34992 ft | 457 kts | 64° |
| 2026-05-08 16:20 | 34.80547 | -117.03068 | 35014 ft | 455 kts | 64° |
| 2026-05-08 16:21 | 34.83185 | -116.96100 | 35027 ft | 453 kts | 64° |
| 2026-05-08 16:21 | 34.85817 | -116.89133 | 35042 ft | 453 kts | 64° |
| 2026-05-08 16:22 | 34.88443 | -116.82169 | 35041 ft | 453 kts | 64° |
| 2026-05-08 16:22 | 34.91071 | -116.75183 | 35041 ft | 454 kts | 64° |
| 2026-05-08 16:23 | 34.93709 | -116.68182 | 35034 ft | 455 kts | 64° |
| 2026-05-08 16:23 | 34.96345 | -116.61208 | 35011 ft | 457 kts | 64° |
| 2026-05-08 16:24 | 34.99011 | -116.54175 | 34990 ft | 458 kts | 64° |
| 2026-05-08 16:24 | 35.01687 | -116.47127 | 34976 ft | 458 kts | 64° |
| 2026-05-08 16:25 | 35.04375 | -116.40068 | 34973 ft | 459 kts | 64° |
| 2026-05-08 16:25 | 35.07770 | -116.33562 | 34974 ft | 454 kts | 43° |
| 2026-05-08 16:26 | 35.12414 | -116.28374 | 34969 ft | 452 kts | 41° |
| 2026-05-08 16:26 | 35.17033 | -116.23175 | 34964 ft | 451 kts | 42° |
| 2026-05-08 16:27 | 35.21595 | -116.17927 | 34963 ft | 450 kts | 42° |
| 2026-05-08 16:27 | 35.26126 | -116.12663 | 34967 ft | 449 kts | 43° |
| 2026-05-08 16:28 | 35.30651 | -116.07391 | 34970 ft | 449 kts | 43° |
| 2026-05-08 16:28 | 35.35176 | -116.02112 | 34978 ft | 449 kts | 43° |
| 2026-05-08 16:29 | 35.39700 | -115.96830 | 34981 ft | 449 kts | 43° |
| 2026-05-08 16:29 | 35.44220 | -115.91542 | 34989 ft | 449 kts | 43° |
| 2026-05-08 16:30 | 35.48740 | -115.86247 | 34998 ft | 450 kts | 43° |
| 2026-05-08 16:30 | 35.53265 | -115.80938 | 34992 ft | 450 kts | 43° |
| 2026-05-08 16:31 | 35.57788 | -115.75621 | 35000 ft | 450 kts | 43° |
| 2026-05-08 16:31 | 35.62307 | -115.70301 | 35006 ft | 450 kts | 43° |
| 2026-05-08 16:32 | 35.66816 | -115.64983 | 35000 ft | 449 kts | 43° |
| 2026-05-08 16:32 | 35.71327 | -115.59655 | 34995 ft | 449 kts | 43° |
| 2026-05-08 16:33 | 35.75824 | -115.54334 | 35001 ft | 448 kts | 43° |
| 2026-05-08 16:33 | 35.80308 | -115.49020 | 35003 ft | 447 kts | 43° |
| 2026-05-08 16:34 | 35.84787 | -115.43702 | 35006 ft | 447 kts | 43° |
| 2026-05-08 16:34 | 35.89261 | -115.38383 | 35018 ft | 446 kts | 43° |
| 2026-05-08 16:35 | 35.93720 | -115.33071 | 35018 ft | 446 kts | 43° |
| 2026-05-08 16:35 | 35.98175 | -115.27756 | 35027 ft | 445 kts | 43° |
| 2026-05-08 16:36 | 36.02624 | -115.22439 | 34996 ft | 445 kts | 43° |
| 2026-05-08 16:36 | 36.06893 | -115.16932 | 35001 ft | 446 kts | 52° |
| 2026-05-08 16:37 | 36.09892 | -115.10231 | 34999 ft | 449 kts | 67° |
| 2026-05-08 16:37 | 36.12050 | -115.02973 | 34998 ft | 449 kts | 68° |
| 2026-05-08 16:38 | 36.14211 | -114.95713 | 34944 ft | 450 kts | 67° |
| 2026-05-08 16:38 | 36.16415 | -114.88466 | 34925 ft | 450 kts | 67° |
| 2026-05-08 16:39 | 36.18627 | -114.81204 | 34908 ft | 451 kts | 67° |
| 2026-05-08 16:39 | 36.20850 | -114.73954 | 34899 ft | 451 kts | 67° |
| 2026-05-08 16:40 | 36.23081 | -114.66690 | 34875 ft | 451 kts | 67° |
| 2026-05-08 16:40 | 36.25305 | -114.59423 | 34866 ft | 451 kts | 67° |
| 2026-05-08 16:41 | 36.27524 | -114.52146 | 34860 ft | 451 kts | 67° |
| 2026-05-08 16:42 | 36.30839 | -114.41234 | 34869 ft | 451 kts | 67° |
| 2026-05-08 16:42 | 36.33042 | -114.33960 | 34863 ft | 451 kts | 67° |
| 2026-05-08 16:43 | 36.35242 | -114.26679 | 34874 ft | 450 kts | 67° |
| 2026-05-08 16:43 | 36.37433 | -114.19408 | 34876 ft | 449 kts | 67° |
| 2026-05-08 16:44 | 36.39609 | -114.12164 | 34878 ft | 448 kts | 67° |
| 2026-05-08 16:44 | 36.41781 | -114.04921 | 34893 ft | 448 kts | 67° |
| 2026-05-08 16:45 | 36.43952 | -113.97664 | 34907 ft | 449 kts | 67° |
| 2026-05-08 16:45 | 36.46124 | -113.90382 | 34910 ft | 450 kts | 67° |
| 2026-05-08 16:46 | 36.48293 | -113.83088 | 34920 ft | 450 kts | 67° |
| 2026-05-08 16:46 | 36.50463 | -113.75773 | 34922 ft | 451 kts | 67° |
| 2026-05-08 16:47 | 36.52625 | -113.68466 | 34914 ft | 450 kts | 67° |
| 2026-05-08 16:47 | 36.54779 | -113.61167 | 34930 ft | 449 kts | 67° |
| 2026-05-08 16:48 | 36.56911 | -113.53923 | 34939 ft | 449 kts | 67° |
| 2026-05-08 16:48 | 36.59050 | -113.46636 | 34936 ft | 448 kts | 67° |
| 2026-05-08 16:49 | 36.61183 | -113.39354 | 34944 ft | 448 kts | 67° |
| 2026-05-08 16:49 | 36.63309 | -113.32072 | 34946 ft | 447 kts | 67° |
| 2026-05-08 16:50 | 36.65417 | -113.24784 | 34954 ft | 447 kts | 67° |
| 2026-05-08 16:50 | 36.67514 | -113.17503 | 34987 ft | 447 kts | 68° |
| 2026-05-08 16:51 | 36.69609 | -113.10217 | 35025 ft | 446 kts | 68° |
| 2026-05-08 16:51 | 36.71699 | -113.02933 | 35044 ft | 446 kts | 68° |
| 2026-05-08 16:52 | 36.73782 | -112.95652 | 35060 ft | 446 kts | 68° |
| 2026-05-08 16:52 | 36.75862 | -112.88363 | 35056 ft | 446 kts | 68° |
| 2026-05-08 16:53 | 36.78626 | -112.78648 | 35040 ft | 447 kts | 68° |
| 2026-05-08 16:53 | 36.80696 | -112.71347 | 35017 ft | 446 kts | 68° |
| 2026-05-08 16:54 | 36.82763 | -112.64036 | 34991 ft | 447 kts | 68° |
| 2026-05-08 16:54 | 36.84827 | -112.56719 | 34974 ft | 447 kts | 68° |
| 2026-05-08 16:55 | 36.86890 | -112.49388 | 34976 ft | 448 kts | 68° |
| 2026-05-08 16:55 | 36.88949 | -112.42052 | 34970 ft | 448 kts | 68° |
| 2026-05-08 16:56 | 36.91014 | -112.34700 | 35007 ft | 450 kts | 68° |
| 2026-05-08 16:56 | 36.92049 | -112.31012 | 35205 ft | 449 kts | 68° |
| 2026-05-08 16:56 | 36.93079 | -112.27338 | 35481 ft | 447 kts | 68° |
| 2026-05-08 16:57 | 36.94104 | -112.23674 | 35802 ft | 444 kts | 68° |
| 2026-05-08 16:57 | 36.95118 | -112.20044 | 36103 ft | 442 kts | 68° |
| 2026-05-08 16:57 | 36.96130 | -112.16420 | 36329 ft | 442 kts | 68° |
| 2026-05-08 16:57 | 36.97140 | -112.12798 | 36505 ft | 442 kts | 68° |
| 2026-05-08 16:58 | 36.98154 | -112.09159 | 36712 ft | 441 kts | 68° |
| 2026-05-08 16:58 | 36.99159 | -112.05544 | 36938 ft | 440 kts | 68° |
| 2026-05-08 16:58 | 37.00167 | -112.01916 | 36921 ft | 443 kts | 68° |